sensor_id;sensor_type;location;lat;lon;timestamp;P1;durP1;ratioP1;P2;durP2;ratioP2
56343;SDS011;42245;42.058;24.700;2024-01-15T04:25:15;13.93;;;6.33;;
56343;SDS011;42245;42.058;24.700;2024-01-15T04:27:40;14.90;;;7.30;;
56343;SDS011;42245;42.058;24.700;2024-01-15T04:30:06;15.70;;;7.77;;
56343;SDS011;42245;42.058;24.700;2024-01-15T04:32:32;22.40;;;9.87;;
56343;SDS011;42245;42.058;24.700;2024-01-15T04:34:57;21.33;;;10.43;;
56343;SDS011;42245;42.058;24.700;2024-01-15T04:37:23;14.80;;;7.43;;
56343;SDS011;42245;42.058;24.700;2024-01-15T04:39:48;14.03;;;7.60;;
56343;SDS011;42245;42.058;24.700;2024-01-15T04:42:20;15.53;;;7.80;;
56343;SDS011;42245;42.058;24.700;2024-01-15T04:44:46;14.93;;;5.70;;
56343;SDS011;42245;42.058;24.700;2024-01-15T04:47:11;9.17;;;4.50;;
56343;SDS011;42245;42.058;24.700;2024-01-15T04:49:36;7.83;;;4.37;;
56343;SDS011;42245;42.058;24.700;2024-01-15T04:52:02;7.50;;;4.03;;
56343;SDS011;42245;42.058;24.700;2024-01-15T04:54:28;7.97;;;4.20;;
56343;SDS011;42245;42.058;24.700;2024-01-15T04:56:53;12.30;;;5.90;;
56343;SDS011;42245;42.058;24.700;2024-01-15T04:59:18;15.70;;;7.70;;
56343;SDS011;42245;42.058;24.700;2024-01-15T05:01:44;17.33;;;6.67;;
56343;SDS011;42245;42.058;24.700;2024-01-15T05:04:09;16.33;;;7.37;;
56343;SDS011;42245;42.058;24.700;2024-01-15T05:06:35;10.17;;;5.13;;
56343;SDS011;42245;42.058;24.700;2024-01-15T05:09:00;10.27;;;5.87;;
56343;SDS011;42245;42.058;24.700;2024-01-15T05:11:26;8.40;;;4.80;;
56343;SDS011;42245;42.058;24.700;2024-01-15T05:13:51;7.47;;;4.20;;
56343;SDS011;42245;42.058;24.700;2024-01-15T05:16:16;18.13;;;8.93;;
56343;SDS011;42245;42.058;24.700;2024-01-15T05:18:42;18.73;;;9.37;;
56343;SDS011;42245;42.058;24.700;2024-01-15T05:21:08;18.33;;;9.47;;
56343;SDS011;42245;42.058;24.700;2024-01-15T05:23:34;12.03;;;5.60;;
56343;SDS011;42245;42.058;24.700;2024-01-15T05:25:59;9.17;;;4.90;;
56343;SDS011;42245;42.058;24.700;2024-01-15T05:28:25;16.70;;;6.10;;
56343;SDS011;42245;42.058;24.700;2024-01-15T05:30:50;11.27;;;6.03;;
56343;SDS011;42245;42.058;24.700;2024-01-15T05:33:16;11.50;;;5.53;;
56343;SDS011;42245;42.058;24.700;2024-01-15T05:35:42;9.50;;;4.87;;
56343;SDS011;42245;42.058;24.700;2024-01-15T05:38:08;10.90;;;5.30;;
56343;SDS011;42245;42.058;24.700;2024-01-15T05:40:33;18.87;;;9.13;;
56343;SDS011;42245;42.058;24.700;2024-01-15T05:42:58;20.33;;;9.20;;
56343;SDS011;42245;42.058;24.700;2024-01-15T05:45:26;17.83;;;8.10;;
56343;SDS011;42245;42.058;24.700;2024-01-15T05:47:51;20.97;;;10.07;;
56343;SDS011;42245;42.058;24.700;2024-01-15T05:50:17;19.20;;;9.90;;
56343;SDS011;42245;42.058;24.700;2024-01-15T05:52:43;11.87;;;6.63;;
56343;SDS011;42245;42.058;24.700;2024-01-15T05:55:08;14.30;;;7.87;;
56343;SDS011;42245;42.058;24.700;2024-01-15T05:57:35;15.00;;;7.10;;
56343;SDS011;42245;42.058;24.700;2024-01-15T06:00:00;15.73;;;7.73;;
56343;SDS011;42245;42.058;24.700;2024-01-15T06:02:25;17.60;;;8.77;;
56343;SDS011;42245;42.058;24.700;2024-01-15T06:04:51;15.50;;;6.77;;
56343;SDS011;42245;42.058;24.700;2024-01-15T06:07:16;18.43;;;8.90;;
56343;SDS011;42245;42.058;24.700;2024-01-15T06:09:42;13.73;;;6.83;;
56343;SDS011;42245;42.058;24.700;2024-01-15T06:12:07;20.17;;;9.73;;
56343;SDS011;42245;42.058;24.700;2024-01-15T06:14:33;24.60;;;11.53;;
56343;SDS011;42245;42.058;24.700;2024-01-15T06:16:59;34.53;;;13.33;;
56343;SDS011;42245;42.058;24.700;2024-01-15T06:19:24;24.33;;;11.37;;
56343;SDS011;42245;42.058;24.700;2024-01-15T06:21:49;25.63;;;11.90;;
56343;SDS011;42245;42.058;24.700;2024-01-15T06:24:15;32.93;;;16.13;;
56343;SDS011;42245;42.058;24.700;2024-01-15T06:26:43;26.23;;;13.33;;
56343;SDS011;42245;42.058;24.700;2024-01-15T06:29:08;21.93;;;10.63;;
56343;SDS011;42245;42.058;24.700;2024-01-15T06:31:34;18.83;;;8.77;;
56343;SDS011;42245;42.058;24.700;2024-01-15T06:33:59;15.90;;;7.60;;
56343;SDS011;42245;42.058;24.700;2024-01-15T06:36:24;15.27;;;8.07;;
56343;SDS011;42245;42.058;24.700;2024-01-15T06:38:50;17.10;;;8.50;;
56343;SDS011;42245;42.058;24.700;2024-01-15T06:41:15;19.37;;;9.13;;
56343;SDS011;42245;42.058;24.700;2024-01-15T06:43:41;28.70;;;10.27;;
56343;SDS011;42245;42.058;24.700;2024-01-15T06:46:06;18.73;;;9.53;;
56343;SDS011;42245;42.058;24.700;2024-01-15T06:48:32;21.90;;;10.60;;
56343;SDS011;42245;42.058;24.700;2024-01-15T06:50:57;20.87;;;10.20;;
56343;SDS011;42245;42.058;24.700;2024-01-15T06:53:22;22.47;;;10.63;;
56343;SDS011;42245;42.058;24.700;2024-01-15T06:55:48;27.57;;;11.37;;
56343;SDS011;42245;42.058;24.700;2024-01-15T06:58:14;27.30;;;12.10;;
56343;SDS011;42245;42.058;24.700;2024-01-15T07:00:39;26.93;;;12.60;;
56343;SDS011;42245;42.058;24.700;2024-01-15T07:03:05;28.70;;;13.20;;
56343;SDS011;42245;42.058;24.700;2024-01-15T07:05:31;31.20;;;14.33;;
56343;SDS011;42245;42.058;24.700;2024-01-15T07:07:57;29.67;;;14.17;;
56343;SDS011;42245;42.058;24.700;2024-01-15T07:10:22;31.57;;;15.20;;
56343;SDS011;42245;42.058;24.700;2024-01-15T07:12:48;30.37;;;15.07;;
56343;SDS011;42245;42.058;24.700;2024-01-15T07:15:14;29.70;;;13.97;;
56343;SDS011;42245;42.058;24.700;2024-01-15T07:17:40;30.60;;;15.03;;
56343;SDS011;42245;42.058;24.700;2024-01-15T07:20:06;27.63;;;13.97;;
56343;SDS011;42245;42.058;24.700;2024-01-15T07:22:35;31.00;;;14.70;;
56343;SDS011;42245;42.058;24.700;2024-01-15T07:25:01;27.13;;;13.57;;
56343;SDS011;42245;42.058;24.700;2024-01-15T07:27:26;33.67;;;18.00;;
56343;SDS011;42245;42.058;24.700;2024-01-15T07:29:52;52.33;;;23.13;;
56343;SDS011;42245;42.058;24.700;2024-01-15T07:32:17;56.57;;;27.87;;
56343;SDS011;42245;42.058;24.700;2024-01-15T07:34:43;75.33;;;35.20;;
56343;SDS011;42245;42.058;24.700;2024-01-15T07:37:08;69.17;;;32.40;;
56343;SDS011;42245;42.058;24.700;2024-01-15T07:39:34;69.03;;;34.93;;
56343;SDS011;42245;42.058;24.700;2024-01-15T07:41:59;77.07;;;35.53;;
56343;SDS011;42245;42.058;24.700;2024-01-15T07:44:25;63.17;;;31.70;;
56343;SDS011;42245;42.058;24.700;2024-01-15T07:46:51;63.40;;;30.20;;
56343;SDS011;42245;42.058;24.700;2024-01-15T07:49:17;72.10;;;32.20;;
56343;SDS011;42245;42.058;24.700;2024-01-15T07:51:42;85.83;;;38.37;;
56343;SDS011;42245;42.058;24.700;2024-01-15T07:54:11;71.17;;;32.97;;
56343;SDS011;42245;42.058;24.700;2024-01-15T07:59:20;73.97;;;36.43;;
56343;SDS011;42245;42.058;24.700;2024-01-15T08:01:45;91.57;;;49.73;;
56343;SDS011;42245;42.058;24.700;2024-01-15T08:04:12;93.10;;;46.73;;
56343;SDS011;42245;42.058;24.700;2024-01-15T08:06:38;77.10;;;38.33;;
56343;SDS011;42245;42.058;24.700;2024-01-15T08:09:04;128.33;;;64.00;;
56343;SDS011;42245;42.058;24.700;2024-01-15T08:11:29;73.53;;;34.07;;
56343;SDS011;42245;42.058;24.700;2024-01-15T08:13:55;73.17;;;34.67;;
56343;SDS011;42245;42.058;24.700;2024-01-15T08:16:21;68.83;;;31.97;;
56343;SDS011;42245;42.058;24.700;2024-01-15T08:18:46;48.93;;;26.10;;
56343;SDS011;42245;42.058;24.700;2024-01-15T08:21:12;54.13;;;27.30;;
56343;SDS011;42245;42.058;24.700;2024-01-15T08:23:38;53.70;;;28.83;;
56343;SDS011;42245;42.058;24.700;2024-01-15T08:26:04;59.63;;;31.17;;
56343;SDS011;42245;42.058;24.700;2024-01-15T08:28:29;73.83;;;36.43;;
56343;SDS011;42245;42.058;24.700;2024-01-15T08:30:55;57.97;;;31.53;;
56343;SDS011;42245;42.058;24.700;2024-01-15T08:33:21;60.43;;;32.10;;
56343;SDS011;42245;42.058;24.700;2024-01-15T08:35:47;53.70;;;28.07;;
56343;SDS011;42245;42.058;24.700;2024-01-15T08:38:12;57.63;;;31.87;;
56343;SDS011;42245;42.058;24.700;2024-01-15T08:40:38;62.33;;;32.07;;
56343;SDS011;42245;42.058;24.700;2024-01-15T08:43:03;61.30;;;33.27;;
56343;SDS011;42245;42.058;24.700;2024-01-15T08:45:29;61.97;;;34.57;;
56343;SDS011;42245;42.058;24.700;2024-01-15T08:47:55;67.47;;;38.17;;
56343;SDS011;42245;42.058;24.700;2024-01-15T08:50:20;70.13;;;35.73;;
56343;SDS011;42245;42.058;24.700;2024-01-15T08:52:46;68.33;;;33.63;;
56343;SDS011;42245;42.058;24.700;2024-01-15T08:55:11;70.00;;;37.43;;
56343;SDS011;42245;42.058;24.700;2024-01-15T08:57:38;66.50;;;34.70;;
56343;SDS011;42245;42.058;24.700;2024-01-15T09:00:04;63.57;;;35.50;;
56343;SDS011;42245;42.058;24.700;2024-01-15T09:02:33;70.53;;;36.27;;
56343;SDS011;42245;42.058;24.700;2024-01-15T09:05:00;70.77;;;37.03;;
56343;SDS011;42245;42.058;24.700;2024-01-15T09:07:25;71.00;;;37.07;;
56343;SDS011;42245;42.058;24.700;2024-01-15T09:09:52;76.83;;;41.30;;
56343;SDS011;42245;42.058;24.700;2024-01-15T09:12:18;74.93;;;41.67;;
56343;SDS011;42245;42.058;24.700;2024-01-15T09:14:46;88.73;;;47.27;;
56343;SDS011;42245;42.058;24.700;2024-01-15T09:17:12;142.77;;;65.73;;
56343;SDS011;42245;42.058;24.700;2024-01-15T09:19:37;76.10;;;37.03;;
56343;SDS011;42245;42.058;24.700;2024-01-15T09:22:04;65.87;;;34.07;;
56343;SDS011;42245;42.058;24.700;2024-01-15T09:24:30;81.33;;;41.77;;
56343;SDS011;42245;42.058;24.700;2024-01-15T09:26:56;86.43;;;45.13;;
56343;SDS011;42245;42.058;24.700;2024-01-15T09:29:21;88.40;;;42.67;;
56343;SDS011;42245;42.058;24.700;2024-01-15T09:31:48;88.10;;;41.77;;
56343;SDS011;42245;42.058;24.700;2024-01-15T09:34:15;61.27;;;33.10;;
56343;SDS011;42245;42.058;24.700;2024-01-15T09:36:40;59.37;;;32.93;;
56343;SDS011;42245;42.058;24.700;2024-01-15T09:39:07;87.03;;;44.40;;
56343;SDS011;42245;42.058;24.700;2024-01-15T09:41:35;69.00;;;36.30;;
56343;SDS011;42245;42.058;24.700;2024-01-15T09:44:01;73.40;;;37.37;;
56343;SDS011;42245;42.058;24.700;2024-01-15T09:46:27;86.80;;;43.97;;
56343;SDS011;42245;42.058;24.700;2024-01-15T09:48:53;80.30;;;43.67;;
56343;SDS011;42245;42.058;24.700;2024-01-15T09:51:19;61.10;;;34.20;;
56343;SDS011;42245;42.058;24.700;2024-01-15T09:53:45;62.77;;;32.70;;
56343;SDS011;42245;42.058;24.700;2024-01-15T09:56:12;70.07;;;34.87;;
56343;SDS011;42245;42.058;24.700;2024-01-15T09:58:38;69.33;;;35.23;;
56343;SDS011;42245;42.058;24.700;2024-01-15T10:01:04;69.90;;;37.43;;
56343;SDS011;42245;42.058;24.700;2024-01-15T10:03:29;88.83;;;49.07;;
56343;SDS011;42245;42.058;24.700;2024-01-15T10:05:56;61.93;;;33.07;;
56343;SDS011;42245;42.058;24.700;2024-01-15T10:08:24;56.70;;;32.43;;
56343;SDS011;42245;42.058;24.700;2024-01-15T10:10:50;61.60;;;33.47;;
56343;SDS011;42245;42.058;24.700;2024-01-15T10:13:16;64.43;;;35.57;;
56343;SDS011;42245;42.058;24.700;2024-01-15T10:15:45;60.30;;;31.90;;
56343;SDS011;42245;42.058;24.700;2024-01-15T10:18:12;59.17;;;31.67;;
56343;SDS011;42245;42.058;24.700;2024-01-15T10:20:37;58.33;;;31.47;;
56343;SDS011;42245;42.058;24.700;2024-01-15T10:23:03;54.30;;;30.17;;
56343;SDS011;42245;42.058;24.700;2024-01-15T10:25:29;63.63;;;32.17;;
56343;SDS011;42245;42.058;24.700;2024-01-15T10:28:04;56.73;;;30.63;;
56343;SDS011;42245;42.058;24.700;2024-01-15T10:30:31;69.33;;;36.63;;
56343;SDS011;42245;42.058;24.700;2024-01-15T10:33:01;60.23;;;32.23;;
56343;SDS011;42245;42.058;24.700;2024-01-15T10:35:32;53.37;;;28.97;;
56343;SDS011;42245;42.058;24.700;2024-01-15T10:38:00;51.73;;;28.30;;
56343;SDS011;42245;42.058;24.700;2024-01-15T10:40:27;56.07;;;30.60;;
56343;SDS011;42245;42.058;24.700;2024-01-15T10:42:52;49.97;;;29.90;;
56343;SDS011;42245;42.058;24.700;2024-01-15T10:45:18;53.85;;;29.60;;
56343;SDS011;42245;42.058;24.700;2024-01-15T10:47:44;53.78;;;33.40;;
56343;SDS011;42245;42.058;24.700;2024-01-15T10:50:10;54.13;;;31.98;;
56343;SDS011;42245;42.058;24.700;2024-01-15T10:52:36;56.17;;;30.60;;
56343;SDS011;42245;42.058;24.700;2024-01-15T10:55:02;66.10;;;38.08;;
56343;SDS011;42245;42.058;24.700;2024-01-15T10:57:29;50.63;;;28.83;;
56343;SDS011;42245;42.058;24.700;2024-01-15T10:59:55;42.78;;;25.35;;
56343;SDS011;42245;42.058;24.700;2024-01-15T11:02:21;43.00;;;25.10;;
56343;SDS011;42245;42.058;24.700;2024-01-15T11:04:46;41.78;;;25.67;;
56343;SDS011;42245;42.058;24.700;2024-01-15T11:07:12;44.22;;;24.88;;
56343;SDS011;42245;42.058;24.700;2024-01-15T11:09:38;40.25;;;23.30;;
56343;SDS011;42245;42.058;24.700;2024-01-15T11:12:07;38.70;;;22.70;;
56343;SDS011;42245;42.058;24.700;2024-01-15T11:14:38;47.53;;;26.23;;
56343;SDS011;42245;42.058;24.700;2024-01-15T11:17:04;67.25;;;36.05;;
56343;SDS011;42245;42.058;24.700;2024-01-15T11:19:44;51.05;;;27.42;;
56343;SDS011;42245;42.058;24.700;2024-01-15T11:22:48;49.45;;;27.25;;
56343;SDS011;42245;42.058;24.700;2024-01-15T11:24:56;41.45;;;24.45;;
56343;SDS011;42245;42.058;24.700;2024-01-15T11:30:09;42.08;;;24.88;;
56343;SDS011;42245;42.058;24.700;2024-01-15T11:32:39;46.45;;;27.42;;
56343;SDS011;42245;42.058;24.700;2024-01-15T11:35:08;48.28;;;29.02;;
56343;SDS011;42245;42.058;24.700;2024-01-15T11:40:23;58.83;;;33.33;;
56343;SDS011;42245;42.058;24.700;2024-01-15T11:43:02;64.68;;;33.80;;
56343;SDS011;42245;42.058;24.700;2024-01-15T11:45:28;58.85;;;34.13;;
56343;SDS011;42245;42.058;24.700;2024-01-15T11:50:24;71.45;;;38.97;;
56343;SDS011;42245;42.058;24.700;2024-01-15T11:52:52;58.35;;;33.08;;
56343;SDS011;42245;42.058;24.700;2024-01-15T11:55:26;60.72;;;33.92;;
56343;SDS011;42245;42.058;24.700;2024-01-15T11:57:55;52.33;;;32.97;;
56343;SDS011;42245;42.058;24.700;2024-01-15T12:00:22;63.22;;;36.55;;
56343;SDS011;42245;42.058;24.700;2024-01-15T12:02:48;70.15;;;37.55;;
56343;SDS011;42245;42.058;24.700;2024-01-15T12:05:16;60.20;;;34.53;;
56343;SDS011;42245;42.058;24.700;2024-01-15T12:07:43;57.65;;;32.17;;
56343;SDS011;42245;42.058;24.700;2024-01-15T12:10:13;56.28;;;32.28;;
56343;SDS011;42245;42.058;24.700;2024-01-15T12:15:25;55.33;;;31.23;;
56343;SDS011;42245;42.058;24.700;2024-01-15T12:17:52;50.97;;;28.33;;
56343;SDS011;42245;42.058;24.700;2024-01-15T12:20:19;56.13;;;30.58;;
56343;SDS011;42245;42.058;24.700;2024-01-15T12:22:45;59.55;;;31.08;;
56343;SDS011;42245;42.058;24.700;2024-01-15T12:25:11;59.83;;;30.98;;
56343;SDS011;42245;42.058;24.700;2024-01-15T12:27:36;59.88;;;30.70;;
56343;SDS011;42245;42.058;24.700;2024-01-15T12:30:02;59.28;;;33.75;;
56343;SDS011;42245;42.058;24.700;2024-01-15T12:32:28;53.40;;;28.48;;
56343;SDS011;42245;42.058;24.700;2024-01-15T12:34:54;67.65;;;34.58;;
56343;SDS011;42245;42.058;24.700;2024-01-15T12:37:19;56.78;;;27.95;;
56343;SDS011;42245;42.058;24.700;2024-01-15T12:39:45;49.88;;;25.20;;
56343;SDS011;42245;42.058;24.700;2024-01-15T12:42:11;51.85;;;28.17;;
56343;SDS011;42245;42.058;24.700;2024-01-15T12:44:37;58.38;;;31.63;;
56343;SDS011;42245;42.058;24.700;2024-01-15T12:47:03;72.47;;;41.03;;
56343;SDS011;42245;42.058;24.700;2024-01-15T12:49:30;65.07;;;34.23;;
56343;SDS011;42245;42.058;24.700;2024-01-15T12:51:58;60.50;;;31.63;;
56343;SDS011;42245;42.058;24.700;2024-01-15T12:54:25;59.47;;;31.10;;
56343;SDS011;42245;42.058;24.700;2024-01-15T12:56:51;54.83;;;30.17;;
56343;SDS011;42245;42.058;24.700;2024-01-15T12:59:18;63.53;;;31.27;;
56343;SDS011;42245;42.058;24.700;2024-01-15T13:01:45;53.27;;;29.07;;
56343;SDS011;42245;42.058;24.700;2024-01-15T13:04:11;63.78;;;31.45;;
56343;SDS011;42245;42.058;24.700;2024-01-15T13:06:45;58.92;;;30.52;;
56343;SDS011;42245;42.058;24.700;2024-01-15T13:09:11;66.80;;;32.40;;
56343;SDS011;42245;42.058;24.700;2024-01-15T13:11:36;63.47;;;34.50;;
56343;SDS011;42245;42.058;24.700;2024-01-15T13:14:02;88.47;;;45.95;;
56343;SDS011;42245;42.058;24.700;2024-01-15T13:16:27;68.13;;;36.70;;
56343;SDS011;42245;42.058;24.700;2024-01-15T13:18:54;65.05;;;36.03;;
56343;SDS011;42245;42.058;24.700;2024-01-15T13:21:20;62.92;;;31.35;;
56343;SDS011;42245;42.058;24.700;2024-01-15T13:23:46;58.80;;;31.15;;
56343;SDS011;42245;42.058;24.700;2024-01-15T13:26:11;60.97;;;32.23;;
56343;SDS011;42245;42.058;24.700;2024-01-15T13:28:40;71.47;;;34.05;;
56343;SDS011;42245;42.058;24.700;2024-01-15T13:31:16;68.85;;;34.45;;
56343;SDS011;42245;42.058;24.700;2024-01-15T13:33:42;67.93;;;34.63;;
56343;SDS011;42245;42.058;24.700;2024-01-15T13:36:07;64.30;;;34.67;;
56343;SDS011;42245;42.058;24.700;2024-01-15T13:38:36;70.60;;;36.30;;
56343;SDS011;42245;42.058;24.700;2024-01-15T13:41:04;72.13;;;38.30;;
56343;SDS011;42245;42.058;24.700;2024-01-15T13:43:30;74.03;;;38.13;;
56343;SDS011;42245;42.058;24.700;2024-01-15T13:45:56;74.93;;;39.27;;
56343;SDS011;42245;42.058;24.700;2024-01-15T13:48:22;78.83;;;39.83;;
56343;SDS011;42245;42.058;24.700;2024-01-15T13:50:48;87.43;;;44.93;;
56343;SDS011;42245;42.058;24.700;2024-01-15T13:53:15;76.93;;;41.43;;
56343;SDS011;42245;42.058;24.700;2024-01-15T13:55:40;66.77;;;36.00;;
56343;SDS011;42245;42.058;24.700;2024-01-15T13:58:06;69.97;;;37.13;;
56343;SDS011;42245;42.058;24.700;2024-01-15T14:00:32;70.50;;;39.53;;
56343;SDS011;42245;42.058;24.700;2024-01-15T14:02:57;77.80;;;39.83;;
56343;SDS011;42245;42.058;24.700;2024-01-15T14:05:23;73.80;;;38.17;;
56343;SDS011;42245;42.058;24.700;2024-01-15T14:07:48;72.83;;;39.60;;
56343;SDS011;42245;42.058;24.700;2024-01-15T14:10:14;92.53;;;41.87;;
56343;SDS011;42245;42.058;24.700;2024-01-15T14:12:40;85.57;;;39.33;;
56343;SDS011;42245;42.058;24.700;2024-01-15T14:15:05;92.63;;;44.40;;
56343;SDS011;42245;42.058;24.700;2024-01-15T14:17:31;93.97;;;48.50;;
56343;SDS011;42245;42.058;24.700;2024-01-15T14:19:57;102.13;;;50.33;;
56343;SDS011;42245;42.058;24.700;2024-01-15T14:22:22;95.77;;;49.87;;
56343;SDS011;42245;42.058;24.700;2024-01-15T14:24:48;104.10;;;53.93;;
56343;SDS011;42245;42.058;24.700;2024-01-15T14:27:14;97.13;;;52.57;;
56343;SDS011;42245;42.058;24.700;2024-01-15T14:29:40;103.80;;;54.43;;
56343;SDS011;42245;42.058;24.700;2024-01-15T14:32:06;100.57;;;52.20;;
56343;SDS011;42245;42.058;24.700;2024-01-15T14:34:31;104.93;;;52.33;;
56343;SDS011;42245;42.058;24.700;2024-01-15T14:36:56;99.60;;;53.17;;
56343;SDS011;42245;42.058;24.700;2024-01-15T14:39:22;108.27;;;53.93;;
56343;SDS011;42245;42.058;24.700;2024-01-15T14:41:48;96.97;;;51.57;;
56343;SDS011;42245;42.058;24.700;2024-01-15T14:44:14;102.77;;;52.93;;
56343;SDS011;42245;42.058;24.700;2024-01-15T14:46:39;105.20;;;52.43;;
56343;SDS011;42245;42.058;24.700;2024-01-15T14:49:05;99.70;;;52.00;;
56343;SDS011;42245;42.058;24.700;2024-01-15T14:51:31;102.93;;;53.10;;
56343;SDS011;42245;42.058;24.700;2024-01-15T14:53:56;104.97;;;52.60;;
56343;SDS011;42245;42.058;24.700;2024-01-15T14:56:22;114.83;;;53.20;;
56343;SDS011;42245;42.058;24.700;2024-01-15T14:58:47;102.10;;;52.40;;
56343;SDS011;42245;42.058;24.700;2024-01-15T15:01:13;99.33;;;50.57;;
56343;SDS011;42245;42.058;24.700;2024-01-15T15:03:39;97.67;;;49.70;;
56343;SDS011;42245;42.058;24.700;2024-01-15T15:06:05;97.13;;;49.77;;
56343;SDS011;42245;42.058;24.700;2024-01-15T15:08:32;96.68;;;53.55;;
56343;SDS011;42245;42.058;24.700;2024-01-15T15:10:58;87.00;;;45.40;;
56343;SDS011;42245;42.058;24.700;2024-01-15T15:13:25;91.60;;;45.67;;
56343;SDS011;42245;42.058;24.700;2024-01-15T15:15:51;105.53;;;47.60;;
56343;SDS011;42245;42.058;24.700;2024-01-15T15:18:17;93.10;;;46.20;;
56343;SDS011;42245;42.058;24.700;2024-01-15T15:20:42;94.93;;;44.83;;
56343;SDS011;42245;42.058;24.700;2024-01-15T15:23:08;89.90;;;44.70;;
56343;SDS011;42245;42.058;24.700;2024-01-15T15:25:34;91.90;;;44.90;;
56343;SDS011;42245;42.058;24.700;2024-01-15T15:28:00;87.73;;;39.07;;
56343;SDS011;42245;42.058;24.700;2024-01-15T15:30:27;78.27;;;39.77;;
56343;SDS011;42245;42.058;24.700;2024-01-15T15:32:52;79.30;;;42.10;;
56343;SDS011;42245;42.058;24.700;2024-01-15T15:35:18;80.27;;;40.37;;
56343;SDS011;42245;42.058;24.700;2024-01-15T15:37:44;90.80;;;45.90;;
56343;SDS011;42245;42.058;24.700;2024-01-15T15:40:09;100.53;;;47.10;;
56343;SDS011;42245;42.058;24.700;2024-01-15T15:42:36;79.57;;;41.77;;
56343;SDS011;42245;42.058;24.700;2024-01-15T15:45:02;84.20;;;41.57;;
56343;SDS011;42245;42.058;24.700;2024-01-15T15:47:29;90.13;;;41.67;;
56343;SDS011;42245;42.058;24.700;2024-01-15T15:49:54;86.33;;;41.23;;
56343;SDS011;42245;42.058;24.700;2024-01-15T15:52:20;82.27;;;40.10;;
56343;SDS011;42245;42.058;24.700;2024-01-15T15:54:45;89.40;;;38.67;;
56343;SDS011;42245;42.058;24.700;2024-01-15T15:57:11;76.57;;;37.90;;
56343;SDS011;42245;42.058;24.700;2024-01-15T15:59:36;96.83;;;43.17;;
56343;SDS011;42245;42.058;24.700;2024-01-15T16:02:02;79.03;;;41.03;;
56343;SDS011;42245;42.058;24.700;2024-01-15T16:04:28;76.30;;;38.83;;
56343;SDS011;42245;42.058;24.700;2024-01-15T16:06:53;77.07;;;39.43;;
56343;SDS011;42245;42.058;24.700;2024-01-15T16:09:19;79.50;;;40.27;;
56343;SDS011;42245;42.058;24.700;2024-01-15T16:11:45;76.93;;;38.97;;
56343;SDS011;42245;42.058;24.700;2024-01-15T16:14:10;75.23;;;37.43;;
56343;SDS011;42245;42.058;24.700;2024-01-15T16:16:36;74.57;;;35.17;;
56343;SDS011;42245;42.058;24.700;2024-01-15T16:19:01;69.27;;;32.57;;
56343;SDS011;42245;42.058;24.700;2024-01-15T16:21:27;71.70;;;37.10;;
56343;SDS011;42245;42.058;24.700;2024-01-15T16:23:54;79.33;;;40.07;;
56343;SDS011;42245;42.058;24.700;2024-01-15T16:26:20;84.93;;;42.63;;
56343;SDS011;42245;42.058;24.700;2024-01-15T16:28:45;108.77;;;53.90;;
56343;SDS011;42245;42.058;24.700;2024-01-15T16:31:11;113.93;;;56.40;;
56343;SDS011;42245;42.058;24.700;2024-01-15T16:33:36;112.67;;;56.40;;
56343;SDS011;42245;42.058;24.700;2024-01-15T16:36:02;106.77;;;52.60;;
56343;SDS011;42245;42.058;24.700;2024-01-15T16:38:27;109.27;;;54.30;;
56343;SDS011;42245;42.058;24.700;2024-01-15T16:40:53;107.90;;;50.97;;
56343;SDS011;42245;42.058;24.700;2024-01-15T16:43:19;97.57;;;48.40;;
56343;SDS011;42245;42.058;24.700;2024-01-15T16:45:49;115.10;;;51.60;;
56343;SDS011;42245;42.058;24.700;2024-01-15T16:48:14;82.60;;;40.60;;
56343;SDS011;42245;42.058;24.700;2024-01-15T16:50:39;89.33;;;43.97;;
56343;SDS011;42245;42.058;24.700;2024-01-15T16:53:05;93.40;;;42.67;;
56343;SDS011;42245;42.058;24.700;2024-01-15T16:55:30;83.90;;;40.23;;
56343;SDS011;42245;42.058;24.700;2024-01-15T16:57:56;84.83;;;40.60;;
56343;SDS011;42245;42.058;24.700;2024-01-15T17:00:23;91.23;;;43.90;;
56343;SDS011;42245;42.058;24.700;2024-01-15T17:02:48;100.37;;;46.30;;
56343;SDS011;42245;42.058;24.700;2024-01-15T17:05:14;87.63;;;41.13;;
56343;SDS011;42245;42.058;24.700;2024-01-15T17:07:40;96.70;;;44.27;;
56343;SDS011;42245;42.058;24.700;2024-01-15T17:10:06;125.83;;;57.73;;
56343;SDS011;42245;42.058;24.700;2024-01-15T17:12:31;115.40;;;53.77;;
56343;SDS011;42245;42.058;24.700;2024-01-15T17:14:57;94.53;;;45.67;;
56343;SDS011;42245;42.058;24.700;2024-01-15T17:17:22;86.77;;;41.13;;
56343;SDS011;42245;42.058;24.700;2024-01-15T17:19:48;95.80;;;45.30;;
56343;SDS011;42245;42.058;24.700;2024-01-15T17:22:14;93.07;;;43.00;;
56343;SDS011;42245;42.058;24.700;2024-01-15T17:24:39;85.17;;;40.00;;
56343;SDS011;42245;42.058;24.700;2024-01-15T17:27:05;78.47;;;38.07;;
56343;SDS011;42245;42.058;24.700;2024-01-15T17:29:30;74.20;;;37.67;;
56343;SDS011;42245;42.058;24.700;2024-01-15T17:31:56;82.93;;;38.60;;
56343;SDS011;42245;42.058;24.700;2024-01-15T17:34:21;82.37;;;39.57;;
56343;SDS011;42245;42.058;24.700;2024-01-15T17:36:47;85.67;;;41.43;;
56343;SDS011;42245;42.058;24.700;2024-01-15T17:39:13;92.63;;;42.63;;
56343;SDS011;42245;42.058;24.700;2024-01-15T17:41:38;81.37;;;37.77;;
56343;SDS011;42245;42.058;24.700;2024-01-15T17:44:04;84.90;;;39.60;;
56343;SDS011;42245;42.058;24.700;2024-01-15T17:46:30;87.73;;;41.80;;
56343;SDS011;42245;42.058;24.700;2024-01-15T17:48:56;87.13;;;41.03;;
56343;SDS011;42245;42.058;24.700;2024-01-15T17:51:27;87.87;;;40.43;;
56343;SDS011;42245;42.058;24.700;2024-01-15T17:53:53;85.57;;;37.03;;
56343;SDS011;42245;42.058;24.700;2024-01-15T17:56:18;74.63;;;37.30;;
56343;SDS011;42245;42.058;24.700;2024-01-15T17:58:44;78.90;;;36.43;;
56343;SDS011;42245;42.058;24.700;2024-01-15T18:01:09;70.27;;;35.13;;
56343;SDS011;42245;42.058;24.700;2024-01-15T18:03:36;87.40;;;40.30;;
56343;SDS011;42245;42.058;24.700;2024-01-15T18:06:01;76.70;;;37.70;;
56343;SDS011;42245;42.058;24.700;2024-01-15T18:08:27;69.40;;;33.63;;
56343;SDS011;42245;42.058;24.700;2024-01-15T18:10:52;67.33;;;30.37;;
56343;SDS011;42245;42.058;24.700;2024-01-15T18:13:18;69.37;;;32.77;;
56343;SDS011;42245;42.058;24.700;2024-01-15T18:15:43;61.60;;;31.30;;
56343;SDS011;42245;42.058;24.700;2024-01-15T18:18:09;76.60;;;36.47;;
56343;SDS011;42245;42.058;24.700;2024-01-15T18:20:34;86.93;;;42.20;;
56343;SDS011;42245;42.058;24.700;2024-01-15T18:23:01;100.70;;;46.97;;
56343;SDS011;42245;42.058;24.700;2024-01-15T18:25:27;101.67;;;47.33;;
56343;SDS011;42245;42.058;24.700;2024-01-15T18:27:52;76.77;;;36.90;;
56343;SDS011;42245;42.058;24.700;2024-01-15T18:30:18;75.57;;;36.90;;
56343;SDS011;42245;42.058;24.700;2024-01-15T18:32:44;85.77;;;40.13;;
56343;SDS011;42245;42.058;24.700;2024-01-15T18:35:09;84.70;;;41.30;;
56343;SDS011;42245;42.058;24.700;2024-01-15T18:37:35;78.10;;;39.03;;
56343;SDS011;42245;42.058;24.700;2024-01-15T18:40:00;81.80;;;38.13;;
56343;SDS011;42245;42.058;24.700;2024-01-15T18:42:26;69.97;;;34.60;;